Time;durP1;ratioP1;P1;durP2;ratioP2;P2;SDS_P1;SDS_P2;PMS_P1;PMS_P2;Temp;Humidity;BMP_temperature;BMP_pressure;BME280_temperature;BME280_humidity;BME280_pressure;Samples;Min_cycle;Max_cycle;Signal;HPM_P1;HPM_P2
2022/03/18 00:02:04;;;;;;;0.43;0.40;;;9.00;99.90;;;;;;4432330;32;20545;-65
2022/03/18 00:04:30;;;;;;;0.60;0.60;;;9.00;99.90;;;;;;4431329;32;20163;-65
2022/03/18 00:06:56;;;;;;;14.80;0.95;;;8.90;99.90;;;;;;4432283;32;20089;-65
2022/03/18 00:09:21;;;;;;;0.82;0.80;;;9.00;99.90;;;;;;4434199;32;20101;-65
2022/03/18 00:11:47;;;;;;;2.55;1.40;;;9.10;99.90;;;;;;4431838;32;20081;-65
2022/03/18 00:14:13;;;;;;;0.68;0.52;;;9.10;99.90;;;;;;4430698;32;20131;-65
2022/03/18 00:16:38;;;;;;;0.52;0.52;;;9.10;99.90;;;;;;4433910;32;20131;-66
2022/03/18 00:19:04;;;;;;;0.43;0.43;;;9.00;99.90;;;;;;4436140;32;20077;-65
2022/03/18 00:21:29;;;;;;;0.30;0.30;;;8.90;99.90;;;;;;4433729;32;20087;-66
2022/03/18 00:23:55;;;;;;;4.05;0.62;;;9.00;99.90;;;;;;4432027;32;20069;-65
2022/03/18 00:26:20;;;;;;;0.90;0.73;;;9.00;99.90;;;;;;4438579;32;20081;-65
2022/03/18 00:28:46;;;;;;;2.83;0.65;;;9.00;99.90;;;;;;4433018;32;20074;-66
2022/03/18 00:31:12;;;;;;;4.47;0.85;;;9.10;99.90;;;;;;4436227;32;20550;-65
2022/03/18 00:33:37;;;;;;;0.40;0.40;;;9.10;99.90;;;;;;4435121;32;20057;-65
2022/03/18 00:36:03;;;;;;;0.37;0.32;;;9.10;99.90;;;;;;4437981;32;20527;-65
2022/03/18 00:38:29;;;;;;;3.25;0.50;;;9.00;99.90;;;;;;4437780;32;20077;-65
2022/03/18 00:40:56;;;;;;;9.23;2.37;;;9.00;99.90;;;;;;4435783;32;20117;-65
2022/03/18 00:43:22;;;;;;;1.80;1.27;;;8.90;99.90;;;;;;4435376;32;20588;-66
2022/03/18 00:45:48;;;;;;;1.45;0.98;;;8.80;99.90;;;;;;4435994;32;20085;-65
2022/03/18 00:52:03;;;;;;;0.50;0.50;;;8.90;99.90;;;;;;4422619;32;20066;-65
2022/03/18 00:53:45;;;;;;;1.25;0.45;;;8.90;99.90;;;;;;4425036;32;20119;-65
2022/03/18 00:56:10;;;;;;;0.40;0.40;;;8.80;99.90;;;;;;4436549;32;20131;-65
2022/03/18 00:58:36;;;;;;;0.40;0.40;;;8.90;99.90;;;;;;4431438;32;20147;-65
2022/03/18 01:01:02;;;;;;;17.92;0.70;;;8.80;99.90;;;;;;4431940;32;20227;-65
2022/03/18 01:03:28;;;;;;;4.28;0.70;;;8.90;99.90;;;;;;4436229;32;20168;-66
2022/03/18 01:05:53;;;;;;;0.40;0.40;;;8.90;99.90;;;;;;4437355;32;20081;-65
2022/03/18 01:08:19;;;;;;;7.50;0.50;;;8.80;99.90;;;;;;4435733;32;20510;-65
2022/03/18 01:10:44;;;;;;;1.25;0.40;;;8.80;99.90;;;;;;4437937;32;20061;-66
2022/03/18 01:13:10;;;;;;;8.38;0.77;;;8.80;99.90;;;;;;4435010;32;20080;-66
2022/03/18 01:15:35;;;;;;;0.70;0.70;;;8.80;99.90;;;;;;4433606;32;20081;-65
2022/03/18 01:18:01;;;;;;;5.40;1.58;;;8.80;99.90;;;;;;4434414;32;20478;-65
2022/03/18 01:20:27;;;;;;;0.37;0.37;;;8.80;99.90;;;;;;4433356;32;20089;-65
2022/03/18 01:22:52;;;;;;;1.33;1.23;;;8.80;99.90;;;;;;4433322;32;20057;-65
2022/03/18 01:25:18;;;;;;;0.50;0.50;;;8.80;99.90;;;;;;4433724;32;20139;-65
2022/03/18 01:27:43;;;;;;;0.35;0.35;;;8.90;99.90;;;;;;4434471;32;20078;-65
2022/03/18 01:30:10;;;;;;;9.40;1.77;;;8.80;99.90;;;;;;4434324;32;20086;-65
2022/03/18 01:32:35;;;;;;;0.30;0.30;;;8.80;99.90;;;;;;4432844;32;20089;-65
2022/03/18 01:35:01;;;;;;;0.35;0.35;;;8.80;99.90;;;;;;4432460;32;20145;-65
2022/03/18 01:37:26;;;;;;;5.18;1.37;;;8.80;99.90;;;;;;4434553;32;20607;-65
2022/03/18 01:39:52;;;;;;;0.70;0.60;;;8.80;99.90;;;;;;4432248;32;20066;-65
2022/03/18 01:42:17;;;;;;;2.12;0.95;;;8.80;99.90;;;;;;4434682;32;20065;-66
2022/03/18 01:44:44;;;;;;;3.45;1.48;;;8.70;99.90;;;;;;4431776;32;20124;-65
2022/03/18 01:47:11;;;;;;;1.83;0.75;;;8.80;99.90;;;;;;4434558;32;20077;-65
2022/03/18 01:49:37;;;;;;;0.50;0.50;;;8.70;99.90;;;;;;4433677;32;20327;-65
2022/03/18 01:52:07;;;;;;;0.95;0.93;;;8.80;99.90;;;;;;4432529;32;20069;-64
2022/03/18 01:54:48;;;;;;;0.30;0.30;;;8.70;99.90;;;;;;4433304;32;20073;-65
2022/03/18 01:57:16;;;;;;;;;;;8.80;99.90;;;;;;4434178;32;20056;-65
2022/03/18 01:59:42;;;;;;;0.50;0.50;;;8.90;99.90;;;;;;4433072;32;19969;-65
2022/03/18 02:02:08;;;;;;;0.40;0.40;;;8.90;99.90;;;;;;4435419;32;20061;-65
2022/03/18 02:04:35;;;;;;;0.50;0.50;;;8.80;99.90;;;;;;4433150;32;20431;-65
2022/03/18 02:07:02;;;;;;;0.40;0.40;;;8.70;99.90;;;;;;4434790;32;20065;-65
2022/03/18 02:09:27;;;;;;;0.30;0.30;;;8.80;99.90;;;;;;4433937;32;20122;-66
2022/03/18 02:11:54;;;;;;;0.43;0.43;;;8.70;99.90;;;;;;4435469;32;20056;-66
2022/03/18 02:14:41;;;;;;;0.82;0.82;;;8.70;99.90;;;;;;4433000;32;20077;-66
2022/03/18 02:17:09;;;;;;;0.40;0.40;;;8.70;99.90;;;;;;4420873;32;20074;-66
2022/03/18 02:19:36;;;;;;;1.90;0.95;;;8.80;99.90;;;;;;4434701;32;20073;-66
2022/03/18 02:22:05;;;;;;;6.78;0.62;;;8.80;99.90;;;;;;4432887;32;20097;-66
2022/03/18 02:24:31;;;;;;;1.67;0.70;;;8.90;99.90;;;;;;4432189;32;20078;-66
2022/03/18 02:26:56;;;;;;;1.37;0.82;;;8.90;99.90;;;;;;4435991;32;20102;-65
2022/03/18 02:29:23;;;;;;;0.30;0.30;;;8.90;99.90;;;;;;4434112;32;20549;-64
2022/03/18 02:31:49;;;;;;;0.50;0.50;;;9.00;99.90;;;;;;4431992;32;20076;-64
2022/03/18 02:34:15;;;;;;;0.73;0.73;;;8.90;99.90;;;;;;4433764;32;20403;-64
2022/03/18 02:36:41;;;;;;;0.47;0.47;;;8.90;99.90;;;;;;4435239;32;20093;-64
2022/03/18 02:39:07;;;;;;;0.50;0.40;;;8.90;99.90;;;;;;4432939;32;20431;-64
2022/03/18 02:41:32;;;;;;;0.60;0.57;;;8.80;99.90;;;;;;4435112;32;20065;-65
2022/03/18 02:43:58;;;;;;;0.40;0.40;;;8.80;99.90;;;;;;4432695;32;20093;-65
2022/03/18 02:46:24;;;;;;;1.40;0.65;;;8.70;99.90;;;;;;4435192;32;20333;-65
2022/03/18 02:48:49;;;;;;;0.57;0.57;;;8.80;99.90;;;;;;4433683;32;20512;-64
2022/03/18 02:51:14;;;;;;;0.32;0.32;;;8.70;99.90;;;;;;4430539;32;20057;-65
2022/03/18 02:53:40;;;;;;;0.45;0.40;;;8.70;99.90;;;;;;4434506;32;20093;-64
2022/03/18 02:56:06;;;;;;;2.83;1.40;;;8.80;99.90;;;;;;4431613;32;20088;-64
2022/03/18 02:58:32;;;;;;;6.87;1.75;;;8.70;99.90;;;;;;4432921;32;20506;-64
2022/03/18 03:00:57;;;;;;;0.40;0.40;;;8.80;99.90;;;;;;4433484;32;20073;-65
2022/03/18 03:03:23;;;;;;;1.35;0.45;;;8.80;99.90;;;;;;4433685;32;20066;-65
2022/03/18 03:08:03;;;;;;;0.35;0.35;;;8.80;99.90;;;;;;4433208;32;20064;-65
2022/03/18 03:08:34;;;;;;;0.50;0.50;;;8.70;99.90;;;;;;4420390;32;20064;-64
2022/03/18 03:10:59;;;;;;;2.55;0.60;;;8.70;99.90;;;;;;4433507;32;20471;-65
2022/03/18 03:13:25;;;;;;;0.60;0.60;;;8.70;99.90;;;;;;4435089;32;20286;-65
2022/03/18 03:15:51;;;;;;;0.50;0.50;;;8.80;99.90;;;;;;4431897;32;20073;-65
2022/03/18 03:18:16;;;;;;;0.30;0.30;;;8.70;99.90;;;;;;4431357;32;20533;-64
2022/03/18 03:20:42;;;;;;;2.47;0.68;;;8.80;99.90;;;;;;4433489;32;20508;-65
2022/03/18 03:23:08;;;;;;;0.80;0.75;;;8.70;99.90;;;;;;4432814;32;20150;-66
2022/03/18 03:25:33;;;;;;;0.30;0.30;;;8.70;99.90;;;;;;4430874;32;20128;-65
2022/03/18 03:27:59;;;;;;;1.08;1.05;;;8.60;99.90;;;;;;4433083;32;20100;-65
2022/03/18 03:30:25;;;;;;;0.60;0.60;;;8.60;99.90;;;;;;4432002;32;20074;-65
2022/03/18 03:32:51;;;;;;;0.40;0.40;;;8.70;99.90;;;;;;4432272;32;20078;-65
2022/03/18 03:35:17;;;;;;;1.85;1.10;;;8.70;99.90;;;;;;4431352;32;20487;-65
2022/03/18 03:37:43;;;;;;;0.68;0.68;;;8.70;99.90;;;;;;4432114;32;20115;-65
2022/03/18 03:40:09;;;;;;;2.30;0.62;;;8.80;99.90;;;;;;4419803;32;20515;-65
2022/03/18 03:42:35;;;;;;;1.45;0.82;;;8.70;99.90;;;;;;4433129;32;20065;-65
2022/03/18 03:45:00;;;;;;;0.70;0.65;;;8.60;99.90;;;;;;4431285;32;20082;-65
2022/03/18 03:47:26;;;;;;;1.70;0.88;;;8.50;99.90;;;;;;4434018;32;20081;-65
2022/03/18 03:49:51;;;;;;;0.55;0.55;;;8.60;99.90;;;;;;4431781;32;20108;-65
2022/03/18 03:52:17;;;;;;;0.35;0.35;;;8.60;99.90;;;;;;4432072;32;20061;-64
2022/03/18 03:54:42;;;;;;;0.30;0.30;;;8.60;99.90;;;;;;4434919;32;20081;-65
2022/03/18 03:57:08;;;;;;;0.45;0.45;;;8.60;99.90;;;;;;4438486;32;20136;-65
2022/03/18 03:59:34;;;;;;;2.17;1.00;;;8.50;99.90;;;;;;4436148;32;20072;-66
2022/03/18 04:02:02;;;;;;;0.57;0.57;;;8.50;99.90;;;;;;4435690;32;20116;-65
2022/03/18 04:04:28;;;;;;;3.55;0.68;;;8.60;99.90;;;;;;4436018;32;20529;-65
2022/03/18 04:06:54;;;;;;;0.43;0.43;;;8.50;99.90;;;;;;4436015;32;20102;-65
2022/03/18 04:09:20;;;;;;;0.35;0.35;;;8.40;99.90;;;;;;4436033;32;20112;-65
2022/03/18 04:11:46;;;;;;;1.75;0.75;;;8.40;99.90;;;;;;4435722;32;20089;-65
2022/03/18 04:14:11;;;;;;;0.65;0.65;;;8.40;99.90;;;;;;4432324;32;20577;-65
2022/03/18 04:16:37;;;;;;;0.30;0.30;;;8.40;99.90;;;;;;4433952;32;20196;-65
2022/03/18 04:19:03;;;;;;;0.60;0.60;;;8.50;99.90;;;;;;4434817;32;20097;-65
2022/03/18 04:21:30;;;;;;;0.62;0.62;;;8.60;99.90;;;;;;4434488;32;20580;-65
2022/03/18 04:23:55;;;;;;;1.08;0.88;;;8.60;99.90;;;;;;4436904;32;20107;-65
2022/03/18 04:26:21;;;;;;;0.37;0.37;;;8.60;99.90;;;;;;4436065;32;20168;-65
2022/03/18 04:28:46;;;;;;;2.37;0.65;;;8.60;99.90;;;;;;4440314;32;20069;-65
2022/03/18 04:31:12;;;;;;;3.53;1.00;;;8.50;99.90;;;;;;4436016;32;20066;-65
2022/03/18 04:33:37;;;;;;;0.50;0.50;;;8.50;99.90;;;;;;4434038;32;20534;-65
2022/03/18 04:36:03;;;;;;;0.50;0.50;;;8.40;99.90;;;;;;4435483;32;20479;-65
2022/03/18 04:38:29;;;;;;;4.78;1.42;;;8.40;99.90;;;;;;4435696;32;20081;-65
2022/03/18 04:40:54;;;;;;;0.57;0.57;;;8.40;99.90;;;;;;4436595;32;20585;-65
2022/03/18 04:43:20;;;;;;;3.42;1.05;;;8.40;99.90;;;;;;4437680;32;20077;-65
2022/03/18 04:45:45;;;;;;;0.40;0.40;;;8.40;99.90;;;;;;4434908;32;20529;-65
2022/03/18 04:48:11;;;;;;;0.70;0.70;;;8.30;99.90;;;;;;4434054;32;20096;-65
2022/03/18 04:50:36;;;;;;;0.40;0.40;;;8.20;99.90;;;;;;4436184;32;20065;-65
2022/03/18 04:53:02;;;;;;;0.73;0.70;;;8.10;99.90;;;;;;4435865;32;20064;-65
2022/03/18 04:55:27;;;;;;;1.83;0.55;;;8.30;99.90;;;;;;4434693;32;20215;-65
2022/03/18 04:57:53;;;;;;;0.68;0.68;;;8.30;99.90;;;;;;4434556;32;20088;-65
2022/03/18 05:00:20;;;;;;;0.40;0.40;;;8.20;99.90;;;;;;4437662;32;20069;-65
2022/03/18 05:02:45;;;;;;;4.07;1.42;;;8.30;99.90;;;;;;4436162;32;20118;-65
2022/03/18 05:05:11;;;;;;;1.77;1.15;;;8.10;99.90;;;;;;4432939;32;20140;-65
2022/03/18 05:07:39;;;;;;;1.08;1.00;;;8.10;99.90;;;;;;4437381;32;20065;-65
2022/03/18 05:10:06;;;;;;;1.45;1.30;;;8.20;99.90;;;;;;4435546;32;20542;-65
2022/03/18 05:12:32;;;;;;;0.35;0.35;;;8.10;99.90;;;;;;4436119;32;20147;-65
2022/03/18 05:14:58;;;;;;;0.47;0.47;;;8.10;99.90;;;;;;4434449;32;20064;-65
2022/03/18 05:17:23;;;;;;;0.40;0.40;;;8.00;99.90;;;;;;4432170;32;20097;-65
2022/03/18 05:19:49;;;;;;;0.30;0.30;;;8.00;99.90;;;;;;4439314;32;20061;-65
2022/03/18 05:22:15;;;;;;;22.60;0.77;;;8.00;99.90;;;;;;4428865;32;20458;-66
2022/03/18 05:24:40;;;;;;;0.77;0.77;;;7.90;99.90;;;;;;4431357;32;20061;-65
2022/03/18 05:27:06;;;;;;;0.77;0.77;;;7.90;99.90;;;;;;4436007;32;20069;-65
2022/03/18 05:29:32;;;;;;;0.50;0.50;;;7.90;99.90;;;;;;4432482;32;20501;-66
2022/03/18 05:31:58;;;;;;;12.68;3.83;;;7.80;99.90;;;;;;4435512;32;20123;-65
2022/03/18 05:34:23;;;;;;;0.70;0.70;;;7.70;99.90;;;;;;4433012;32;20135;-65
2022/03/18 05:36:49;;;;;;;0.30;0.30;;;7.70;99.90;;;;;;4430801;32;20394;-66
2022/03/18 05:39:15;;;;;;;0.50;0.50;;;7.60;99.90;;;;;;4433139;32;20556;-66
2022/03/18 05:41:43;;;;;;;0.70;0.70;;;7.70;99.90;;;;;;4438439;32;20085;-66
2022/03/18 05:44:08;;;;;;;0.32;0.32;;;7.70;99.90;;;;;;4433053;32;20537;-65
2022/03/18 05:46:34;;;;;;;0.40;0.40;;;7.70;99.90;;;;;;4432901;32;20120;-65
2022/03/18 05:49:00;;;;;;;0.60;0.60;;;7.60;99.90;;;;;;4431508;32;20066;-66
2022/03/18 05:51:27;;;;;;;0.45;0.45;;;7.60;99.90;;;;;;4433704;32;20461;-66
2022/03/18 05:53:52;;;;;;;6.12;0.60;;;7.70;99.90;;;;;;4435671;32;20148;-66
2022/03/18 05:57:18;;;;;;;2.17;0.93;;;7.70;99.90;;;;;;4435835;32;20122;-65
2022/03/18 05:59:06;;;;;;;0.50;0.50;;;7.60;99.90;;;;;;4420800;32;20081;-66
2022/03/18 06:01:35;;;;;;;1.27;1.17;;;7.50;99.90;;;;;;4415777;32;20148;-66
2022/03/18 06:04:01;;;;;;;0.40;0.40;;;7.50;99.90;;;;;;4433875;32;20077;-65
2022/03/18 06:06:27;;;;;;;0.30;0.30;;;7.50;99.90;;;;;;4432988;32;20382;-65
2022/03/18 06:11:53;;;;;;;1.48;0.47;;;7.30;99.90;;;;;;4422991;32;20655;-66
2022/03/18 06:14:22;;;;;;;0.30;0.30;;;7.20;99.90;;;;;;4430759;32;20417;-65
2022/03/18 06:16:48;;;;;;;0.37;0.37;;;7.20;99.90;;;;;;4424986;32;20057;-66
2022/03/18 06:19:16;;;;;;;1.00;0.98;;;7.30;99.90;;;;;;4425561;32;20069;-65
2022/03/18 06:21:42;;;;;;;0.40;0.40;;;7.30;99.90;;;;;;4432644;32;20561;-66
2022/03/18 06:24:09;;;;;;;7.05;0.75;;;7.30;99.90;;;;;;4434512;32;20121;-66
2022/03/18 06:26:35;;;;;;;17.17;0.75;;;7.20;99.90;;;;;;4417949;32;22128;-65
2022/03/18 06:29:01;;;;;;;1.20;0.85;;;7.30;99.90;;;;;;4430855;32;20136;-65
2022/03/18 06:31:28;;;;;;;0.98;0.90;;;7.40;99.90;;;;;;4407603;32;20495;-64
2022/03/18 06:33:54;;;;;;;2.45;1.08;;;7.50;99.90;;;;;;4430257;32;20135;-64
2022/03/18 06:36:20;;;;;;;0.62;0.62;;;7.70;99.90;;;;;;4427577;32;20557;-66
2022/03/18 06:38:47;;;;;;;5.00;1.62;;;7.60;99.90;;;;;;4427590;32;20066;-65
2022/03/18 06:41:12;;;;;;;0.70;0.70;;;7.60;99.90;;;;;;4431239;32;20078;-67
2022/03/18 06:43:38;;;;;;;5.18;1.37;;;7.50;99.90;;;;;;4430598;32;20105;-66
2022/03/18 06:46:04;;;;;;;6.87;1.48;;;7.50;99.90;;;;;;4418426;32;20512;-65
2022/03/18 06:48:29;;;;;;;4.18;2.22;;;7.50;99.90;;;;;;4422044;32;20145;-65
2022/03/18 06:50:55;;;;;;;4.03;1.02;;;7.50;99.90;;;;;;4420215;32;20143;-66
2022/03/18 06:53:20;;;;;;;3.87;2.55;;;7.50;99.90;;;;;;4422268;32;20117;-66
2022/03/18 06:55:46;;;;;;;0.30;0.30;;;7.60;99.90;;;;;;4405189;32;20424;-66
2022/03/18 06:58:11;;;;;;;0.30;0.30;;;7.50;99.90;;;;;;4411575;32;20093;-66
2022/03/18 07:00:39;;;;;;;0.37;0.37;;;7.60;99.90;;;;;;4398848;32;20145;-66
2022/03/18 07:03:06;;;;;;;0.30;0.30;;;7.50;99.90;;;;;;4405188;32;20288;-66
2022/03/18 07:05:32;;;;;;;0.32;0.32;;;7.60;99.90;;;;;;4407109;32;20117;-66
2022/03/18 07:07:57;;;;;;;0.30;0.30;;;7.70;99.90;;;;;;4406885;32;20097;-66
2022/03/18 07:10:23;;;;;;;0.55;0.55;;;7.60;99.90;;;;;;4399292;32;20077;-65
2022/03/18 07:12:48;;;;;;;1.75;0.95;;;7.70;99.90;;;;;;4409645;32;20865;-66
2022/03/18 07:15:14;;;;;;;8.18;1.23;;;7.80;99.90;;;;;;4410352;32;20097;-66
2022/03/18 07:17:55;;;;;;;0.30;0.30;;;7.90;99.90;;;;;;4408841;32;20065;-65
2022/03/18 07:20:23;;;;;;;2.33;0.73;;;7.90;99.90;;;;;;4409727;32;20104;-65
2022/03/18 07:23:02;;;;;;;1.17;0.60;;;7.90;99.90;;;;;;4408270;32;20085;-65
2022/03/18 07:25:28;;;;;;;0.40;0.40;;;7.90;99.90;;;;;;4411691;32;20734;-65
2022/03/18 07:27:54;;;;;;;4.20;0.45;;;7.80;99.90;;;;;;4404161;32;20633;-66
2022/03/18 07:30:19;;;;;;;1.12;0.90;;;7.80;99.90;;;;;;4413400;32;20236;-66
2022/03/18 07:32:45;;;;;;;1.90;0.70;;;7.90;99.90;;;;;;4404501;32;20096;-66
2022/03/18 07:35:11;;;;;;;1.73;1.35;;;7.80;99.90;;;;;;4349659;32;1565539;-66
2022/03/18 07:37:37;;;;;;;1.33;1.05;;;7.80;99.90;;;;;;4404118;32;20092;-66
2022/03/18 07:40:03;;;;;;;3.50;0.60;;;7.80;99.90;;;;;;4403476;32;20136;-66
2022/03/18 07:42:42;;;;;;;0.35;0.35;;;7.90;99.90;;;;;;4411172;32;20840;-65
2022/03/18 07:45:09;;;;;;;0.40;0.40;;;8.00;99.90;;;;;;4418946;32;20478;-66
2022/03/18 07:47:35;;;;;;;2.75;0.88;;;8.10;99.90;;;;;;4397961;32;20164;-65
2022/03/18 07:50:00;;;;;;;0.45;0.45;;;8.10;99.90;;;;;;4414297;32;20166;-65
2022/03/18 07:52:26;;;;;;;3.92;0.82;;;8.30;99.90;;;;;;4417779;32;20122;-65
2022/03/18 07:54:51;;;;;;;0.30;0.30;;;8.40;99.90;;;;;;4420723;32;20084;-65
2022/03/18 07:57:17;;;;;;;0.52;0.52;;;8.40;99.90;;;;;;4420931;32;20997;-65
2022/03/18 07:59:42;;;;;;;0.60;0.60;;;8.50;99.90;;;;;;4413315;32;20675;-65
2022/03/18 08:02:08;;;;;;;0.62;0.62;;;8.50;99.90;;;;;;4413004;32;20496;-65
2022/03/18 08:04:34;;;;;;;0.60;0.60;;;8.70;99.90;;;;;;4407867;32;20152;-65
2022/03/18 08:07:03;;;;;;;0.52;0.52;;;8.80;99.90;;;;;;4409810;32;20186;-66
2022/03/18 08:09:29;;;;;;;0.40;0.40;;;8.90;99.90;;;;;;4411344;32;20088;-65
2022/03/18 08:11:55;;;;;;;0.40;0.40;;;9.00;99.90;;;;;;4409597;32;20632;-65
2022/03/18 08:14:22;;;;;;;3.47;1.52;;;8.80;99.90;;;;;;4410412;32;20082;-66
2022/03/18 08:16:47;;;;;;;3.47;2.15;;;8.70;99.90;;;;;;4407109;32;20109;-65
2022/03/18 08:19:13;;;;;;;0.43;0.43;;;8.70;99.90;;;;;;4406100;32;20080;-66
2022/03/18 08:21:38;;;;;;;3.03;0.93;;;8.80;99.90;;;;;;4413780;32;20150;-65
2022/03/18 08:24:05;;;;;;;0.52;0.45;;;8.80;99.90;;;;;;4416116;32;20065;-65
2022/03/18 08:26:31;;;;;;;0.77;0.60;;;8.70;99.90;;;;;;4414053;32;20109;-65
2022/03/18 08:28:57;;;;;;;0.57;0.57;;;8.90;99.90;;;;;;4405947;32;20201;-65
2022/03/18 08:31:22;;;;;;;1.15;1.05;;;9.00;99.90;;;;;;4398524;32;20829;-65
2022/03/18 08:33:48;;;;;;;2.42;0.85;;;8.90;99.90;;;;;;4398899;32;20097;-65
2022/03/18 08:36:13;;;;;;;0.82;0.82;;;9.10;99.90;;;;;;4401645;32;20431;-64
2022/03/18 08:38:40;;;;;;;2.97;1.08;;;9.20;99.90;;;;;;4410400;32;20097;-65
2022/03/18 08:41:05;;;;;;;0.50;0.50;;;9.50;99.90;;;;;;4414609;32;20096;-64
2022/03/18 08:43:31;;;;;;;0.40;0.40;;;9.70;99.90;;;;;;4417595;32;20837;-65
2022/03/18 08:45:57;;;;;;;0.93;0.85;;;9.80;99.90;;;;;;4413541;32;20096;-65
2022/03/18 08:48:22;;;;;;;2.58;0.88;;;9.80;99.90;;;;;;4413966;32;20093;-66
2022/03/18 08:50:48;;;;;;;2.72;0.80;;;9.80;99.90;;;;;;4401971;32;21131;-65
2022/03/18 08:53:13;;;;;;;1.65;0.80;;;9.90;99.90;;;;;;4404239;32;20349;-65
2022/03/18 08:55:40;;;;;;;0.65;0.50;;;9.90;99.90;;;;;;4398974;32;20113;-65
2022/03/18 08:58:07;;;;;;;0.73;0.73;;;9.80;99.90;;;;;;4399624;32;20101;-64
2022/03/18 09:00:33;;;;;;;0.30;0.30;;;9.90;99.90;;;;;;4402453;32;20077;-64
2022/03/18 09:02:58;;;;;;;1.50;0.93;;;9.90;99.90;;;;;;4390602;32;22720;-64
2022/03/18 09:05:24;;;;;;;1.42;0.85;;;10.10;99.90;;;;;;4406895;32;20154;-65
2022/03/18 09:07:49;;;;;;;3.65;0.90;;;10.20;99.90;;;;;;4405119;32;20118;-66
2022/03/18 09:10:15;;;;;;;0.40;0.40;;;10.20;99.90;;;;;;4371052;32;22020;-65
2022/03/18 09:12:48;;;;;;;1.42;1.23;;;10.30;99.90;;;;;;4410623;32;20482;-66
2022/03/18 09:15:14;;;;;;;1.30;0.65;;;10.40;99.90;;;;;;4409228;32;20065;-66
2022/03/18 09:17:40;;;;;;;3.70;0.90;;;10.40;99.90;;;;;;4396778;32;20426;-66
2022/03/18 09:20:06;;;;;;;7.82;1.40;;;10.30;99.90;;;;;;4396532;32;20546;-66
2022/03/18 09:22:32;;;;;;;0.60;0.60;;;10.50;99.90;;;;;;4405844;32;20100;-64
2022/03/18 09:24:57;;;;;;;2.00;0.68;;;10.50;99.90;;;;;;4405677;32;20096;-65
2022/03/18 09:27:23;;;;;;;0.30;0.30;;;10.40;99.90;;;;;;4402586;32;20092;-64
2022/03/18 09:29:48;;;;;;;6.25;0.90;;;10.50;99.90;;;;;;4400778;32;20148;-65
2022/03/18 09:32:15;;;;;;;1.08;0.70;;;10.60;99.90;;;;;;4388446;32;20782;-64
2022/03/18 09:34:42;;;;;;;0.40;0.40;;;10.80;99.90;;;;;;4386508;32;20110;-65
2022/03/18 09:37:07;;;;;;;0.50;0.50;;;10.90;99.90;;;;;;4397454;32;20165;-64
2022/03/18 09:39:33;;;;;;;0.43;0.43;;;11.10;99.90;;;;;;4395542;32;20092;-66
2022/03/18 09:41:59;;;;;;;0.82;0.82;;;11.30;99.90;;;;;;4400000;32;20076;-66
2022/03/18 09:44:36;;;;;;;0.82;0.82;;;11.30;99.90;;;;;;4401009;32;20213;-66
2022/03/18 09:47:03;;;;;;;2.47;1.50;;;11.40;99.90;;;;;;4396767;32;20117;-66
2022/03/18 09:49:29;;;;;;;0.40;0.40;;;11.40;99.90;;;;;;4383186;32;20203;-66
2022/03/18 09:51:55;;;;;;;2.05;1.27;;;11.70;99.90;;;;;;4408792;32;20381;-67
2022/03/18 09:54:20;;;;;;;2.53;1.17;;;11.80;99.90;;;;;;4393491;32;20096;-66
2022/03/18 09:56:48;;;;;;;0.50;0.50;;;11.80;99.90;;;;;;4398480;32;20080;-65
2022/03/18 09:59:15;;;;;;;8.05;1.50;;;11.80;99.90;;;;;;4392246;32;20489;-66
2022/03/18 10:01:41;;;;;;;2.03;0.70;;;12.00;99.90;;;;;;4397574;32;20160;-65
2022/03/18 10:04:10;;;;;;;0.70;0.68;;;12.30;99.90;;;;;;4403162;32;20701;-65
2022/03/18 10:06:38;;;;;;;0.32;0.32;;;12.30;99.90;;;;;;4394137;32;20092;-65
2022/03/18 10:09:05;;;;;;;2.40;1.20;;;12.50;99.90;;;;;;4403425;32;20192;-65
2022/03/18 10:11:33;;;;;;;0.70;0.70;;;12.40;99.90;;;;;;4404937;32;20529;-65
2022/03/18 10:14:07;;;;;;;0.95;0.68;;;12.40;99.90;;;;;;4400319;32;20557;-65
2022/03/18 10:16:38;;;;;;;4.43;1.20;;;12.70;99.90;;;;;;4405998;32;20777;-65
2022/03/18 10:19:06;;;;;;;;;;;12.80;99.90;;;;;;4410466;32;20552;-65
2022/03/18 10:21:33;;;;;;;0.40;0.40;;;12.80;99.90;;;;;;4406176;32;20400;-66
2022/03/18 10:24:10;;;;;;;1.15;1.05;;;12.60;99.90;;;;;;4404635;32;20715;-65
2022/03/18 10:26:37;;;;;;;0.80;0.70;;;12.70;99.90;;;;;;4388995;32;20283;-65
2022/03/18 10:29:04;;;;;;;1.08;0.82;;;12.80;99.90;;;;;;4404214;32;20853;-65
2022/03/18 10:31:30;;;;;;;0.57;0.57;;;13.00;99.90;;;;;;4401277;32;20473;-66
2022/03/18 10:37:04;;;;;;;1.35;1.20;;;13.40;99.90;;;;;;4392064;32;20167;-65
2022/03/18 10:39:33;;;;;;;7.57;1.67;;;13.30;99.90;;;;;;4419585;32;20382;-65
2022/03/18 10:42:02;;;;;;;1.25;0.93;;;13.40;99.90;;;;;;4420934;32;20057;-64
2022/03/18 10:44:41;;;;;;;0.35;0.35;;;13.50;99.90;;;;;;4419912;32;20222;-65
2022/03/18 10:47:07;;;;;;;0.47;0.47;;;13.70;99.90;;;;;;4423308;32;20576;-65
2022/03/18 10:49:32;;;;;;;9.20;0.73;;;13.90;99.90;;;;;;4422368;32;20088;-65
2022/03/18 10:52:10;;;;;;;0.57;0.57;;;14.20;99.90;;;;;;4422144;32;20073;-66
2022/03/18 10:54:35;;;;;;;0.93;0.93;;;14.00;99.90;;;;;;4418062;32;20109;-65
2022/03/18 10:57:02;;;;;;;1.65;0.85;;;14.20;99.90;;;;;;4428969;32;20100;-64
2022/03/18 10:59:27;;;;;;;3.22;0.73;;;14.20;99.90;;;;;;4421935;32;20109;-64
2022/03/18 11:01:54;;;;;;;13.57;1.08;;;13.90;99.90;;;;;;4421938;32;20618;-64
2022/03/18 11:04:22;;;;;;;1.17;0.80;;;14.00;99.90;;;;;;4421581;32;20206;-64
2022/03/18 11:07:43;;;;;;;0.52;0.52;;;14.40;99.90;;;;;;4418312;32;20462;-63
2022/03/18 11:11:40;;;;;;;0.57;0.55;;;14.70;99.90;;;;;;4407200;32;20474;-65
2022/03/18 11:12:28;;;;;;;6.30;0.73;;;15.10;98.40;;;;;;4407139;32;20073;-65
2022/03/18 11:14:56;;;;;;;4.47;1.27;;;15.00;98.10;;;;;;4414490;32;20065;-64
2022/03/18 11:17:23;;;;;;;1.25;0.80;;;15.00;98.40;;;;;;4399658;32;20105;-65
2022/03/18 11:19:52;;;;;;;13.25;1.10;;;15.10;97.80;;;;;;4407681;32;20147;-65
2022/03/18 11:22:18;;;;;;;2.25;1.10;;;14.90;97.50;;;;;;4412621;32;20105;-65
2022/03/18 11:24:46;;;;;;;3.10;1.00;;;14.90;98.10;;;;;;4416107;32;20080;-65
2022/03/18 11:27:12;;;;;;;2.15;1.00;;;15.20;97.20;;;;;;4418152;32;20612;-65
2022/03/18 11:29:38;;;;;;;4.12;0.95;;;15.30;96.60;;;;;;4420453;32;20069;-66
2022/03/18 11:32:15;;;;;;;0.60;0.60;;;15.70;96.60;;;;;;4420309;32;20121;-65
2022/03/18 11:34:50;;;;;;;1.23;0.60;;;15.90;95.80;;;;;;4418887;32;20467;-66
2022/03/18 11:37:17;;;;;;;4.37;0.75;;;16.50;94.70;;;;;;4423166;32;20089;-66
2022/03/18 11:39:42;;;;;;;1.92;1.27;;;16.80;92.90;;;;;;4423126;32;20092;-68
2022/03/18 11:42:09;;;;;;;0.40;0.40;;;17.00;90.50;;;;;;4422244;32;21066;-66
2022/03/18 11:44:40;;;;;;;0.50;0.50;;;17.20;90.40;;;;;;4420806;32;20216;-66
2022/03/18 11:47:28;;;;;;;0.60;0.60;;;17.20;90.90;;;;;;4421138;32;20433;-66
2022/03/18 11:49:54;;;;;;;16.65;0.88;;;17.20;90.40;;;;;;4406744;32;20105;-66
2022/03/18 11:52:20;;;;;;;0.82;0.80;;;17.20;88.90;;;;;;4412762;32;20100;-66
2022/03/18 11:54:52;;;;;;;0.65;0.43;;;17.30;88.50;;;;;;4411709;32;20086;-66
2022/03/18 11:57:42;;;;;;;0.40;0.40;;;17.80;84.20;;;;;;4399423;32;20101;-67
2022/03/18 12:00:29;;;;;;;3.75;0.50;;;18.00;83.20;;;;;;4411169;32;20084;-65
2022/03/18 12:02:54;;;;;;;4.43;0.88;;;18.10;82.50;;;;;;4407717;32;20097;-66
2022/03/18 12:05:20;;;;;;;0.47;0.47;;;18.00;81.20;;;;;;4416170;32;20713;-66
2022/03/18 12:07:48;;;;;;;0.32;0.32;;;18.30;80.40;;;;;;4416851;32;20101;-66
2022/03/18 12:10:31;;;;;;;1.12;1.05;;;18.70;78.40;;;;;;4418352;32;20204;-65
2022/03/18 12:12:57;;;;;;;0.73;0.73;;;18.10;78.60;;;;;;4414705;32;20114;-66
2022/03/18 12:15:23;;;;;;;4.25;0.93;;;17.90;80.70;;;;;;4419092;32;20093;-66
2022/03/18 12:17:51;;;;;;;1.25;1.02;;;18.20;78.50;;;;;;4418827;32;20104;-65
2022/03/18 12:20:20;;;;;;;0.37;0.37;;;18.70;79.00;;;;;;4424331;32;20101;-64
2022/03/18 12:22:48;;;;;;;1.05;0.98;;;18.70;76.10;;;;;;4423937;32;20132;-64
2022/03/18 12:25:14;;;;;;;0.62;0.62;;;19.00;76.20;;;;;;4416253;32;20526;-65
2022/03/18 12:27:41;;;;;;;1.83;0.77;;;19.40;73.00;;;;;;4418424;32;20527;-66
2022/03/18 12:30:11;;;;;;;0.25;0.25;;;19.30;72.10;;;;;;4418198;32;20096;-65
2022/03/18 12:32:47;;;;;;;2.28;0.43;;;19.50;72.20;;;;;;4415921;32;20092;-66
2022/03/18 12:35:12;;;;;;;0.40;0.40;;;19.70;71.80;;;;;;4417189;32;20482;-68
2022/03/18 12:37:41;;;;;;;1.48;0.82;;;19.90;71.60;;;;;;4419335;32;20100;-66
2022/03/18 12:40:11;;;;;;;0.45;0.45;;;20.40;69.20;;;;;;4413549;32;20153;-67
2022/03/18 12:42:56;;;;;;;1.45;0.32;;;20.10;69.80;;;;;;4407425;32;20528;-66
2022/03/18 12:45:25;;;;;;;1.27;0.52;;;20.90;67.90;;;;;;4382784;32;20263;-66
2022/03/18 12:47:53;;;;;;;0.30;0.30;;;21.10;65.60;;;;;;4404009;32;20592;-66
2022/03/18 12:50:18;;;;;;;6.45;0.55;;;20.50;65.70;;;;;;4416986;32;20088;-66
2022/03/18 12:52:44;;;;;;;15.63;0.45;;;20.20;64.50;;;;;;4418922;32;20089;-65
2022/03/18 12:55:12;;;;;;;1.62;0.73;;;19.90;67.00;;;;;;4422221;32;20077;-66
2022/03/18 12:57:42;;;;;;;8.65;2.00;;;20.30;65.10;;;;;;4426521;32;20119;-65
2022/03/18 13:00:11;;;;;;;0.98;0.73;;;20.80;63.20;;;;;;4424231;32;20089;-66
2022/03/18 13:02:37;;;;;;;0.80;0.68;;;20.90;62.50;;;;;;4418642;32;20084;-66